Time;durP1;ratioP1;P1;durP2;ratioP2;P2;SDS_P1;SDS_P2;PMS_P1;PMS_P2;Temp;Humidity;BMP_temperature;BMP_pressure;BME280_temperature;BME280_humidity;BME280_pressure;Samples;Min_cycle;Max_cycle;Signal;HPM_P1;HPM_P2
2022/01/09 00:02:16;;;;;;;33.07;16.23;;;;;;;0.68;100.00;99651.94;4987312;57;1136992;-78
2022/01/09 00:07:21;;;;;;;36.57;21.03;;;;;;;0.73;100.00;99641.30;4998853;57;1136894;-78
2022/01/09 00:12:28;;;;;;;29.47;16.73;;;;;;;0.66;100.00;99647.27;5015534;58;1136829;-72
2022/01/09 00:17:34;;;;;;;37.42;19.27;;;;;;;0.63;100.00;99638.77;4946068;58;1136952;-75
2022/01/09 00:22:46;;;;;;;32.13;18.65;;;;;;;0.61;100.00;99638.84;4955930;58;1136898;-80
2022/01/09 00:27:52;;;;;;;27.83;16.30;;;;;;;0.58;100.00;99639.03;4962355;58;1137020;-75
2022/01/09 00:32:57;;;;;;;29.97;15.77;;;;;;;0.58;100.00;99634.28;4951291;58;1136951;-72
2022/01/09 00:38:03;;;;;;;27.57;15.37;;;;;;;0.57;100.00;99628.23;4954421;58;1136923;-78
2022/01/09 00:43:09;;;;;;;39.70;21.03;;;;;;;0.54;100.00;99619.73;4944400;58;1136950;-74
2022/01/09 00:48:17;;;;;;;47.03;21.07;;;;;;;0.58;100.00;99618.67;4911079;58;1137270;-77
2022/01/09 00:53:23;;;;;;;44.23;21.40;;;;;;;0.67;100.00;99603.88;4935557;58;1137478;-71
2022/01/09 00:58:29;;;;;;;48.37;21.33;;;;;;;0.73;100.00;99591.86;4946710;58;1136887;-77
2022/01/09 01:03:36;;;;;;;41.10;20.83;;;;;;;0.76;100.00;99593.47;4981975;59;1137015;-73
2022/01/09 01:08:41;;;;;;;41.37;22.80;;;;;;;0.82;100.00;99590.52;5007394;57;1136932;-75
2022/01/09 01:13:47;;;;;;;52.67;25.13;;;;;;;0.82;100.00;99575.75;5169774;57;1136933;-77
2022/01/09 01:18:55;;;;;;;45.00;22.90;;;;;;;0.84;100.00;99569.16;5169668;57;1134860;-76
2022/01/09 01:24:01;;;;;;;46.30;21.63;;;;;;;0.83;100.00;99569.63;5163780;57;1134855;-74
2022/01/09 01:29:07;;;;;;;52.20;23.17;;;;;;;0.78;100.00;99571.62;5158274;57;1139154;-79
2022/01/09 01:34:14;;;;;;;43.00;21.47;;;;;;;0.75;100.00;99564.00;5157730;57;1138987;-78
2022/01/09 01:39:20;;;;;;;54.83;25.67;;;;;;;0.71;100.00;99554.66;5158053;57;1139204;-72
2022/01/09 01:44:27;;;;;;;57.87;28.27;;;;;;;0.65;100.00;99544.56;5159937;57;1139244;-77
2022/01/09 01:49:33;;;;;;;55.37;27.37;;;;;;;0.60;100.00;99540.92;5137910;57;1138946;-69
2022/01/09 01:54:42;;;;;;;63.27;30.37;;;;;;;0.57;100.00;99531.13;5159756;57;1139304;-74
2022/01/09 01:59:48;;;;;;;73.40;31.13;;;;;;;0.45;100.00;99527.41;5157520;57;1138989;-78
2022/01/09 02:04:55;;;;;;;67.97;30.17;;;;;;;0.40;100.00;99508.59;5103400;57;1139095;-76
2022/01/09 02:10:01;;;;;;;69.90;31.43;;;;;;;0.33;100.00;99501.56;5045740;58;1139115;-78
2022/01/09 02:15:46;;;;;;;68.47;32.20;;;;;;;0.19;100.00;99485.00;4953595;59;1139047;-74
2022/01/09 02:20:53;;;;;;;72.07;33.90;;;;;;;0.10;100.00;99471.19;4954926;59;1139008;-79
2022/01/09 02:26:00;;;;;;;75.40;35.33;;;;;;;0.07;100.00;99467.44;4955132;59;1139026;-82
2022/01/09 02:31:05;;;;;;;70.60;32.57;;;;;;;-0.01;100.00;99454.85;4954838;59;1139101;-76
2022/01/09 02:36:11;;;;;;;77.97;34.10;;;;;;;-0.10;100.00;99454.00;4954692;59;1141231;-74
2022/01/09 02:41:18;;;;;;;72.87;32.47;;;;;;;-0.16;100.00;99448.68;4954933;59;1141141;-72
2022/01/09 02:46:46;;;;;;;75.30;33.80;;;;;;;-0.28;100.00;99438.88;4955106;59;1141228;-76
2022/01/09 02:51:40;;;;;;;86.57;34.70;;;;;;;-0.42;100.00;99431.78;4953111;59;1141113;-81
2022/01/09 02:56:46;;;;;;;78.20;31.93;;;;;;;-0.56;100.00;99415.22;4964799;59;1141118;-81
2022/01/09 03:01:51;;;;;;;74.70;34.23;;;;;;;-0.64;100.00;99407.82;4961587;58;1141185;-80
2022/01/09 03:06:57;;;;;;;73.13;31.27;;;;;;;-0.69;100.00;99397.27;4978537;59;1141069;-77
2022/01/09 03:12:04;;;;;;;74.27;32.63;;;;;;;-0.75;100.00;99394.05;4971359;59;1141422;-73
2022/01/09 03:17:10;;;;;;;73.53;32.50;;;;;;;-0.81;100.00;99380.09;4952487;59;1141097;-74
2022/01/09 03:22:16;;;;;;;82.37;33.33;;;;;;;-0.88;100.00;99390.84;4937706;59;1141198;-75
2022/01/09 03:27:22;;;;;;;71.10;32.77;;;;;;;-0.93;100.00;99386.35;4949568;59;1141098;-82
2022/01/09 03:32:28;;;;;;;74.40;34.03;;;;;;;-1.02;100.00;99388.91;4943541;59;1141127;-79
2022/01/09 03:37:33;;;;;;;75.27;32.70;;;;;;;-1.06;100.00;99385.63;4943256;59;1141084;-78
2022/01/09 03:42:39;;;;;;;80.27;33.83;;;;;;;-1.12;100.00;99378.16;4951732;59;1141200;-74
2022/01/09 03:47:45;;;;;;;84.37;33.07;;;;;;;-1.14;100.00;99367.01;4959498;59;1141325;-76
2022/01/09 03:52:52;;;;;;;74.67;31.60;;;;;;;-1.19;100.00;99360.34;4962618;59;1141038;-76
2022/01/09 03:57:58;;;;;;;78.37;34.00;;;;;;;-1.25;100.00;99360.66;4970744;59;1139109;-75
2022/01/09 04:03:03;;;;;;;76.43;32.47;;;;;;;-1.25;100.00;99358.91;4941270;59;1139243;-77
2022/01/09 04:08:09;;;;;;;70.23;32.77;;;;;;;-1.34;100.00;99355.89;4990034;59;1138983;-73
2022/01/09 04:13:15;;;;;;;74.03;32.20;;;;;;;-1.42;100.00;99345.45;5120358;57;1138920;-71
2022/01/09 04:18:23;;;;;;;75.33;32.33;;;;;;;-1.48;100.00;99355.25;5122963;57;1139094;-79
2022/01/09 04:23:29;;;;;;;72.30;32.77;;;;;;;-1.48;100.00;99355.25;5122972;57;1139350;-79
2022/01/09 04:28:35;;;;;;;78.93;32.13;;;;;;;-1.50;100.00;99362.26;5122960;57;1138999;-77
2022/01/09 04:33:41;;;;;;;73.60;31.90;;;;;;;-1.51;100.00;99362.72;5122895;57;1138954;-75
2022/01/09 04:38:47;;;;;;;79.60;32.53;;;;;;;-1.50;100.00;99381.70;5122954;57;1139147;-76
2022/01/09 04:43:53;;;;;;;74.00;33.40;;;;;;;-1.48;100.00;99383.77;5123011;57;1139056;-74
2022/01/09 04:48:58;;;;;;;82.77;33.40;;;;;;;-1.50;100.00;99379.11;5123109;57;1139296;-78
2022/01/09 04:54:05;;;;;;;73.83;32.47;;;;;;;-1.57;100.00;99367.36;5122948;57;1139285;-71
2022/01/09 04:59:10;;;;;;;77.10;32.37;;;;;;;-1.60;100.00;99366.20;5123026;57;1139032;-80
2022/01/09 05:04:16;;;;;;;77.20;34.33;;;;;;;-1.68;100.00;99370.43;5126310;57;1139499;-75
2022/01/09 05:09:22;;;;;;;75.97;34.20;;;;;;;-1.78;100.00;99368.73;5113908;57;1138996;-78
2022/01/09 05:14:28;;;;;;;76.37;30.17;;;;;;;-1.83;100.00;99374.56;4996523;58;1139213;-76
2022/01/09 05:19:35;;;;;;;69.50;26.73;;;;;;;-1.90;100.00;99386.13;4991845;58;1139041;-74
2022/01/09 05:24:41;;;;;;;72.07;30.40;;;;;;;-1.95;100.00;99391.13;4991680;58;1136980;-76
2022/01/09 05:29:47;;;;;;;64.80;28.97;;;;;;;-2.04;100.00;99382.02;4991601;58;1136923;-75
2022/01/09 05:34:53;;;;;;;66.47;30.83;;;;;;;-2.09;100.00;99380.53;5012317;58;21190;-74
2022/01/09 05:39:59;;;;;;;75.60;32.83;;;;;;;-2.15;100.00;99385.10;5002556;58;1137081;-73
2022/01/09 05:45:07;;;;;;;62.90;31.20;;;;;;;-2.20;100.00;99384.91;5019137;58;1140989;-77
2022/01/09 05:50:13;;;;;;;66.63;30.40;;;;;;;-2.21;100.00;99369.81;5004242;58;1140969;-75
2022/01/09 05:55:21;;;;;;;70.70;31.03;;;;;;;-2.21;100.00;99375.45;5047976;58;1141040;-72
2022/01/09 06:00:27;;;;;;;66.63;28.40;;;;;;;-2.25;100.00;99371.30;5019191;58;1141058;-70
2022/01/09 06:05:32;;;;;;;65.03;28.60;;;;;;;-2.37;100.00;99377.02;4940428;59;1141283;-75
2022/01/09 06:10:37;;;;;;;70.40;28.77;;;;;;;-2.47;100.00;99367.98;4920370;59;1141203;-74
2022/01/09 06:15:43;;;;;;;75.33;28.30;;;;;;;-2.56;100.00;99363.56;4898775;60;1141332;-74
2022/01/09 06:20:50;;;;;;;73.10;31.00;;;;;;;-2.63;100.00;99368.63;4899331;60;1141077;-72
2022/01/09 06:25:57;;;;;;;66.07;29.03;;;;;;;-2.69;100.00;99361.12;4879237;60;1141208;-75
2022/01/09 06:31:03;;;;;;;66.50;27.70;;;;;;;-2.72;100.00;99361.23;4899832;59;1141127;-71
2022/01/09 06:36:10;;;;;;;64.83;29.17;;;;;;;-2.78;100.00;99352.45;4910322;59;1141090;-77
2022/01/09 06:41:15;;;;;;;63.90;28.10;;;;;;;-2.87;100.00;99356.25;4910234;60;1141193;-77
2022/01/09 06:46:21;;;;;;;63.87;29.87;;;;;;;-2.83;100.00;99354.39;4911538;59;1141216;-73
2022/01/09 06:51:28;;;;;;;65.80;28.97;;;;;;;-2.85;100.00;99359.63;4940840;58;1141524;-74
2022/01/09 06:56:33;;;;;;;64.97;28.30;;;;;;;-2.87;100.00;99365.76;4983565;58;1141227;-73
2022/01/09 07:01:39;;;;;;;64.73;27.57;;;;;;;-2.87;100.00;99360.13;4953845;58;1140998;-77
2022/01/09 07:06:45;;;;;;;71.63;30.80;;;;;;;-2.89;100.00;99355.92;4924717;58;1141159;-70
2022/01/09 07:11:51;;;;;;;65.47;28.57;;;;;;;-2.88;100.00;99364.08;4912748;59;1141129;-69
2022/01/09 07:16:57;;;;;;;65.50;27.93;;;;;;;-2.88;100.00;99371.83;4892801;59;1141132;-69
2022/01/09 07:22:03;;;;;;;64.33;28.07;;;;;;;-2.93;100.00;99365.58;4961532;58;1141046;-76
2022/01/09 07:27:10;;;;;;;69.57;28.60;;;;;;;-2.94;100.00;99363.89;4914741;57;1141018;-72
2022/01/09 07:32:16;;;;;;;59.10;26.47;;;;;;;-2.97;100.00;99361.43;4952094;58;1141114;-75
2022/01/09 07:37:25;;;;;;;59.70;28.43;;;;;;;-3.00;100.00;99358.96;4909919;59;1141035;-69
2022/01/09 07:42:31;;;;;;;58.80;26.52;;;;;;;-3.00;100.00;99351.66;4968698;58;1141223;-75
2022/01/09 07:47:38;;;;;;;161.13;60.67;;;;;;;-2.97;100.00;99349.79;4925624;59;1141302;-77
2022/01/09 07:52:44;;;;;;;80.47;34.40;;;;;;;-2.92;100.00;99353.48;4954280;58;1143198;-72
2022/01/09 07:57:51;;;;;;;118.13;47.00;;;;;;;-2.91;100.00;99341.78;4958979;58;1141357;-76
2022/01/09 08:02:56;;;;;;;108.67;47.65;;;;;;;-2.79;100.00;99348.19;4944993;59;1143422;-74
2022/01/09 08:08:02;;;;;;;75.47;35.17;;;;;;;-2.68;100.00;99351.16;4974283;57;1143181;-71
2022/01/09 08:13:08;;;;;;;66.77;30.33;;;;;;;-2.55;100.00;99350.17;4972137;58;1141096;-75
2022/01/09 08:18:15;;;;;;;60.17;24.90;;;;;;;-2.37;100.00;99349.84;4990551;59;1141052;-72
2022/01/09 08:23:21;;;;;;;56.83;25.70;;;;;;;-2.19;100.00;99346.44;4950144;59;1141006;-71
2022/01/09 08:28:28;;;;;;;61.00;28.40;;;;;;;-2.06;100.00;99346.28;4912486;60;1141189;-72
2022/01/09 08:33:33;;;;;;;66.80;29.90;;;;;;;-1.94;100.00;99347.47;4912188;60;1141354;-73
2022/01/09 08:38:39;;;;;;;67.40;29.30;;;;;;;-1.80;100.00;99342.49;4911993;60;1141135;-79
2022/01/09 08:43:45;;;;;;;66.63;27.50;;;;;;;-1.63;100.00;99345.60;4912121;60;1141099;-74
2022/01/09 08:48:51;;;;;;;57.58;27.40;;;;;;;-1.57;100.00;99344.03;4902281;60;1141157;-72
2022/01/09 08:53:59;;;;;;;62.70;30.67;;;;;;;-1.50;100.00;99340.22;4901053;60;1139099;-72
2022/01/09 08:59:05;;;;;;;56.63;26.43;;;;;;;-1.35;100.00;99340.79;4901195;60;1139159;-71
2022/01/09 09:04:12;;;;;;;56.13;25.25;;;;;;;-1.21;100.00;99331.05;4901211;60;1139036;-77
2022/01/09 09:09:18;;;;;;;53.80;27.17;;;;;;;-1.05;100.00;99338.46;4901197;59;1139103;-72
2022/01/09 09:14:23;;;;;;;71.80;34.87;;;;;;;-0.93;100.00;99329.25;4901403;60;1139170;-73
2022/01/09 09:19:30;;;;;;;163.10;69.90;;;;;;;-0.82;100.00;99329.55;4901337;60;1139057;-74
2022/01/09 09:24:36;;;;;;;407.63;205.73;;;;;;;-0.76;100.00;99324.88;4901104;60;1141219;-75
2022/01/09 09:29:42;;;;;;;62.78;30.40;;;;;;;-0.71;100.00;99327.25;4922444;59;1143232;-77
2022/01/09 09:34:48;;;;;;;57.73;26.57;;;;;;;-0.68;100.00;99336.19;4938578;59;1139016;-70
2022/01/09 09:39:54;;;;;;;81.20;36.23;;;;;;;-0.71;100.00;99334.58;4979338;59;1139060;-74
2022/01/09 09:45:02;;;;;;;217.17;90.90;;;;;;;-0.82;100.00;99331.69;4990506;59;1139276;-79
2022/01/09 09:50:12;;;;;;;63.60;27.87;;;;;;;-0.82;100.00;99338.18;4925356;59;1141105;-76
2022/01/09 09:55:20;;;;;;;64.87;27.03;;;;;;;-0.82;100.00;99328.26;4923114;59;1139057;-74
2022/01/09 10:00:27;;;;;;;60.03;28.93;;;;;;;-0.84;100.00;99324.89;4972643;59;1139203;-70
2022/01/09 10:05:38;;;;;;;66.15;27.90;;;;;;;-0.85;100.00;99318.02;4911785;60;1138993;-76
2022/01/09 10:10:45;;;;;;;77.90;33.40;;;;;;;-0.84;100.00;99316.65;4917398;59;1137183;-72
2022/01/09 10:16:01;;;;;;;52.83;24.10;;;;;;;-0.85;100.00;99322.75;4921532;58;1141253;-71
2022/01/09 10:21:23;;;;;;;62.50;25.43;;;;;;;-0.90;100.00;99319.54;4974923;59;1141288;-80
2022/01/09 10:26:31;;;;;;;72.95;35.33;;;;;;;-0.98;100.00;99322.98;4955188;58;1141001;-74
2022/01/09 10:31:46;;;;;;;73.57;32.57;;;;;;;-0.97;100.00;99338.10;4981754;58;1141092;-80
2022/01/09 10:36:53;;;;;;;66.20;30.50;;;;;;;-0.89;100.00;99327.70;4972682;58;1141318;-80
2022/01/09 10:42:03;;;;;;;75.03;34.70;;;;;;;-0.82;100.00;99330.84;4999001;58;1141174;-79
2022/01/09 10:47:14;;;;;;;87.50;41.17;;;;;;;-0.79;100.00;99323.76;4971830;58;1141016;-75
2022/01/09 10:52:38;;;;;;;73.73;33.93;;;;;;;-0.72;100.00;99321.67;4970506;58;1141100;-76
2022/01/09 10:57:40;;;;;;;83.37;38.50;;;;;;;-0.69;100.00;99321.52;4999956;58;1141222;-75
2022/01/09 11:02:46;;;;;;;88.93;39.20;;;;;;;-0.67;100.00;99315.80;4940899;59;1141099;-74
2022/01/09 11:07:52;;;;;;;83.90;34.17;;;;;;;-0.67;100.00;99314.50;4930590;58;1141050;-75
2022/01/09 11:13:00;;;;;;;71.10;34.47;;;;;;;-0.62;100.00;99296.10;4959760;58;1141213;-74
2022/01/09 11:18:05;;;;;;;77.27;35.93;;;;;;;-0.56;100.00;99285.37;4943554;59;1141074;-74
2022/01/09 11:23:12;;;;;;;79.97;37.27;;;;;;;-0.55;100.00;99269.72;4906534;58;1141085;-72
2022/01/09 11:28:27;;;;;;;77.77;33.97;;;;;;;-0.55;100.00;99280.11;4936112;58;1141077;-75
2022/01/09 11:34:10;;;;;;;77.17;35.50;;;;;;;-0.52;100.00;99272.62;4937258;58;1141117;-73
2022/01/09 11:39:25;;;;;;;72.53;33.80;;;;;;;-0.47;100.00;99267.58;4968659;58;1141084;-74
2022/01/09 11:44:33;;;;;;;65.97;31.90;;;;;;;-0.41;100.00;99275.03;4946334;58;1139100;-79
2022/01/09 11:49:56;;;;;;;81.17;34.10;;;;;;;-0.31;100.00;99282.35;4952408;58;1139119;-75
2022/01/09 11:55:07;;;;;;;72.67;31.63;;;;;;;-0.09;100.00;99290.20;4921737;59;1139484;-69
2022/01/09 12:00:39;;;;;;;68.27;32.53;;;;;;;0.24;100.00;99292.73;4891022;59;1139233;-74
2022/01/09 12:06:09;;;;;;;62.07;29.00;;;;;;;0.63;100.00;99296.62;4887961;59;1137205;-72
2022/01/09 12:11:16;;;;;;;96.95;40.63;;;;;;;0.91;100.00;99288.95;4980477;57;1139039;-75
2022/01/09 12:16:48;;;;;;;102.37;45.63;;;;;;;1.16;100.00;99287.51;5094145;57;1138983;-70
2022/01/09 12:21:54;;;;;;;78.70;36.07;;;;;;;1.33;99.13;99289.50;4990702;59;1141116;-73
2022/01/09 12:27:40;;;;;;;107.67;45.53;;;;;;;1.62;97.22;99283.00;4990829;59;1137236;-72
2022/01/09 12:32:46;;;;;;;68.53;34.27;;;;;;;1.83;98.83;99283.00;4990788;59;1139268;-73
2022/01/09 12:37:58;;;;;;;66.10;32.00;;;;;;;2.04;97.24;99290.78;4978620;59;1137206;-75
2022/01/09 12:43:12;;;;;;;74.77;35.57;;;;;;;2.12;94.11;99304.66;4990631;59;1137169;-76
2022/01/09 12:48:32;;;;;;;71.60;31.57;;;;;;;2.26;95.55;99318.98;4990630;59;1137142;-71
2022/01/09 12:53:47;;;;;;;113.60;53.70;;;;;;;2.29;93.48;99325.78;4958876;59;1136868;-74
2022/01/09 12:59:05;;;;;;;73.83;35.70;;;;;;;2.29;94.29;99323.98;4986366;59;1138459;-73
2022/01/09 13:04:23;;;;;;;70.87;32.07;;;;;;;2.06;93.18;99324.59;4963389;59;1136913;-72
2022/01/09 13:09:31;;;;;;;72.73;33.60;;;;;;;2.02;94.21;99330.45;4955153;59;1136957;-75
2022/01/09 13:14:47;;;;;;;68.95;31.37;;;;;;;1.83;94.12;99331.23;5006488;58;1136918;-74
2022/01/09 13:19:55;;;;;;;69.10;33.70;;;;;;;1.71;94.52;99333.25;5028766;58;1134770;-75
2022/01/09 13:25:10;;;;;;;71.73;32.33;;;;;;;1.60;94.80;99329.99;5031572;58;1134875;-75
2022/01/09 13:30:16;;;;;;;72.33;32.53;;;;;;;1.49;95.18;99341.99;4941194;59;1135080;-76
2022/01/09 13:35:26;;;;;;;87.57;38.30;;;;;;;1.39;96.23;99350.80;4932927;59;1134855;-72
2022/01/09 13:40:32;;;;;;;253.10;93.83;;;;;;;1.36;96.70;99353.14;5005862;58;1134802;-72
2022/01/09 13:45:45;;;;;;;276.23;113.63;;;;;;;1.20;97.20;99365.38;5014490;58;1137350;-73
2022/01/09 13:50:50;;;;;;;125.77;64.67;;;;;;;1.03;97.72;99356.38;5015033;58;1139042;-74
2022/01/09 13:55:56;;;;;;;85.37;36.03;;;;;;;0.90;98.63;99361.45;5016979;58;1136884;-74
2022/01/09 14:01:02;;;;;;;90.80;44.97;;;;;;;0.71;98.53;99363.41;4920739;59;1134819;-79
2022/01/09 14:06:11;;;;;;;100.37;44.20;;;;;;;0.58;99.30;99375.42;4917595;59;1134873;-76
2022/01/09 14:11:19;;;;;;;82.03;38.07;;;;;;;0.48;99.64;99376.36;4835818;60;1137272;-70
2022/01/09 14:16:35;;;;;;;77.13;40.07;;;;;;;0.37;100.00;99381.31;4776584;60;1135143;-74
2022/01/09 14:21:59;;;;;;;73.93;31.60;;;;;;;0.29;100.00;99392.15;5069529;58;21199;-76
2022/01/09 14:27:05;;;;;;;73.40;33.37;;;;;;;0.21;100.00;99393.00;5039959;58;1135253;-70
2022/01/09 14:32:20;;;;;;;71.73;32.83;;;;;;;0.13;100.00;99398.23;5041282;58;1138981;-74
2022/01/09 14:37:26;;;;;;;77.07;35.90;;;;;;;0.06;100.00;99408.56;5040442;58;1139132;-72
2022/01/09 14:42:32;;;;;;;104.50;51.10;;;;;;;0.00;100.00;99408.45;5041183;58;1138961;-74
2022/01/09 14:47:38;;;;;;;144.87;89.00;;;;;;;-0.04;100.00;99410.82;5040983;58;1141185;-72
2022/01/09 14:52:45;;;;;;;85.15;39.55;;;;;;;-0.07;100.00;99421.36;5041058;58;1143152;-74
2022/01/09 14:57:51;;;;;;;80.00;37.60;;;;;;;-0.13;100.00;99419.91;5040967;58;1141165;-72
2022/01/09 15:02:59;;;;;;;83.00;39.40;;;;;;;-0.17;100.00;99414.52;5041260;58;1141087;-76
2022/01/09 15:08:05;;;;;;;94.50;43.20;;;;;;;-0.20;100.00;99424.22;4993645;57;1141207;-79
2022/01/09 15:13:15;;;;;;;93.17;42.13;;;;;;;-0.25;100.00;99427.05;5000619;58;1141116;-77
2022/01/09 15:18:21;;;;;;;84.67;37.47;;;;;;;-0.28;100.00;99434.98;4949308;58;1141232;-76
2022/01/09 15:23:27;;;;;;;95.03;40.80;;;;;;;-0.32;100.00;99436.54;4930080;59;1141118;-82
2022/01/09 15:28:32;;;;;;;85.77;39.90;;;;;;;-0.37;100.00;99441.50;4939054;58;1141216;-79
2022/01/09 15:33:38;;;;;;;87.20;39.87;;;;;;;-0.41;100.00;99448.21;4968916;58;1141115;-76
2022/01/09 15:38:44;;;;;;;83.77;39.03;;;;;;;-0.44;100.00;99456.99;4968834;58;1141155;-79
2022/01/09 15:43:50;;;;;;;91.43;41.83;;;;;;;-0.46;100.00;99459.31;4968844;58;1140667;-75
2022/01/09 15:48:56;;;;;;;93.43;40.17;;;;;;;-0.52;100.00;99457.00;4967928;58;1140984;-73
2022/01/09 15:54:02;;;;;;;102.87;44.63;;;;;;;-0.52;100.00;99464.80;4936337;58;1141156;-73
2022/01/09 15:59:11;;;;;;;105.87;42.73;;;;;;;-0.56;100.00;99477.53;4936811;58;1143213;-72
2022/01/09 16:04:17;;;;;;;100.60;42.73;;;;;;;-0.62;100.00;99477.85;4890907;60;1143217;-73
2022/01/09 16:09:26;;;;;;;137.20;53.87;;;;;;;-0.67;100.00;99484.55;4922698;59;1143221;-75
2022/01/09 16:14:32;;;;;;;103.47;43.30;;;;;;;-0.71;100.00;99483.02;4928198;57;1143391;-71
2022/01/09 16:19:39;;;;;;;105.83;44.60;;;;;;;-0.75;100.00;99490.56;4927592;59;1143159;-73
2022/01/09 16:24:44;;;;;;;119.57;55.67;;;;;;;-0.74;100.00;99502.62;4936393;58;1143416;-75
2022/01/09 16:29:52;;;;;;;136.40;60.03;;;;;;;-0.75;100.00;99506.13;4923583;59;1143285;-75
2022/01/09 16:34:58;;;;;;;116.23;50.93;;;;;;;-0.78;100.00;99510.20;4955946;58;1143415;-74
2022/01/09 16:40:05;;;;;;;147.33;59.70;;;;;;;-0.77;100.00;99520.52;4928140;59;1143166;-78
2022/01/09 16:45:10;;;;;;;145.17;57.93;;;;;;;-0.79;100.00;99518.44;4931322;58;1143338;-76
2022/01/09 16:50:16;;;;;;;137.75;57.25;;;;;;;-0.81;100.00;99525.45;4929099;59;1143135;-73
2022/01/09 16:55:22;;;;;;;127.47;49.17;;;;;;;-0.86;100.00;99520.09;4931690;58;1143188;-71
2022/01/09 17:00:28;;;;;;;125.77;51.50;;;;;;;-0.96;100.00;99520.98;4968462;58;1143228;-79
2022/01/09 17:05:34;;;;;;;129.03;53.20;;;;;;;-0.93;100.00;99531.69;4968667;58;1143126;-74
2022/01/09 17:10:39;;;;;;;125.27;51.47;;;;;;;-0.92;100.00;99543.75;4929588;59;1141132;-73
2022/01/09 17:15:45;;;;;;;140.40;55.97;;;;;;;-0.95;100.00;99538.24;4983516;58;1141265;-71
2022/01/09 17:20:50;;;;;;;121.23;46.23;;;;;;;-0.95;100.00;99548.63;4931063;59;1141067;-74
2022/01/09 17:25:57;;;;;;;105.30;39.53;;;;;;;-0.93;100.00;99557.18;5014975;58;1141105;-79
2022/01/09 17:31:07;;;;;;;91.63;37.10;;;;;;;-0.94;100.00;99567.63;5004146;58;1141215;-76
2022/01/09 17:36:18;;;;;;;89.50;35.80;;;;;;;-1.00;100.00;99572.63;5053286;58;1138985;-78
2022/01/09 17:41:24;;;;;;;75.37;33.77;;;;;;;-1.00;100.00;99588.66;5042377;58;1138950;-78
2022/01/09 17:46:30;;;;;;;78.23;29.97;;;;;;;-1.05;100.00;99592.75;4930209;59;1139042;-83
2022/01/09 17:51:37;;;;;;;82.87;32.80;;;;;;;-1.08;100.00;99602.84;5041011;58;1138968;-70
2022/01/09 17:56:43;;;;;;;70.23;30.30;;;;;;;-1.10;100.00;99605.11;4869449;59;1140732;-83
2022/01/09 18:01:49;;;;;;;81.50;34.33;;;;;;;-1.12;100.00;99616.84;4975497;58;1140699;-77
2022/01/09 18:06:54;;;;;;;113.20;42.03;;;;;;;-1.12;100.00;99627.67;4974762;58;1140668;-74
2022/01/09 18:12:00;;;;;;;126.57;45.97;;;;;;;-1.13;100.00;99637.67;4984372;57;1142995;-76
2022/01/09 18:17:06;;;;;;;133.57;51.00;;;;;;;-1.15;100.00;99649.41;4956728;58;1142843;-72
2022/01/09 18:22:12;;;;;;;124.90;42.97;;;;;;;-1.17;100.00;99654.27;4881688;59;1142817;-74
2022/01/09 18:27:19;;;;;;;124.37;45.87;;;;;;;-1.18;100.00;99652.58;4904115;59;1142779;-76
2022/01/09 18:32:24;;;;;;;122.75;43.78;;;;;;;-1.23;100.00;99655.84;4877095;58;1143007;-71
2022/01/09 18:37:31;;;;;;;106.03;38.00;;;;;;;-1.25;100.00;99661.10;4856939;59;1142993;-79
2022/01/09 18:42:37;;;;;;;169.70;58.97;;;;;;;-1.24;100.00;99665.38;4830788;59;1143362;-74
2022/01/09 18:47:43;;;;;;;125.50;46.95;;;;;;;-1.25;100.00;99670.63;4879423;59;1143181;-75
2022/01/09 18:52:49;;;;;;;121.73;43.30;;;;;;;-1.28;100.00;99678.09;4849664;59;1143209;-81
2022/01/09 18:57:55;;;;;;;109.57;44.90;;;;;;;-1.27;100.00;99672.45;4880584;59;1142926;-76
2022/01/09 19:03:01;;;;;;;129.50;50.47;;;;;;;-1.28;100.00;99685.87;4831744;59;1143083;-74
2022/01/09 19:08:06;;;;;;;131.57;58.87;;;;;;;-1.27;100.00;99687.56;4805740;60;1143012;-76
2022/01/09 19:13:12;;;;;;;106.10;44.47;;;;;;;-1.24;100.00;99698.27;4814806;59;1143108;-76
2022/01/09 19:18:19;;;;;;;109.27;41.33;;;;;;;-1.22;100.00;99708.94;4861543;59;1263335;-79
2022/01/09 19:23:25;;;;;;;106.63;41.63;;;;;;;-1.22;100.00;99710.23;4827282;58;1143133;-72
2022/01/09 19:28:31;;;;;;;115.97;44.88;;;;;;;-1.24;100.00;99713.38;4847075;58;1143172;-76
2022/01/09 19:33:37;;;;;;;150.72;53.00;;;;;;;-1.28;100.00;99705.33;4873419;58;1145568;-77
2022/01/09 19:38:42;;;;;;;124.07;44.70;;;;;;;-1.30;100.00;99714.91;4960626;59;1142898;-81
2022/01/09 19:43:48;;;;;;;109.97;43.30;;;;;;;-1.27;100.00;99716.55;5000374;58;1143145;-78
2022/01/09 19:48:58;;;;;;;106.40;40.17;;;;;;;-1.26;100.00;99738.98;4977676;58;1143136;-80
2022/01/09 19:54:05;;;;;;;137.20;51.73;;;;;;;-1.30;100.00;99739.55;4938212;58;1143522;-75
2022/01/09 19:59:12;;;;;;;113.73;45.50;;;;;;;-1.32;100.00;99747.85;4924481;59;1143616;-80
2022/01/09 20:04:21;;;;;;;112.17;42.53;;;;;;;-1.34;100.00;99760.48;4989075;58;1143202;-72
2022/01/09 20:09:26;;;;;;;159.87;58.67;;;;;;;-1.38;100.00;99765.44;4874736;59;1143255;-77
2022/01/09 20:14:33;;;;;;;131.50;50.70;;;;;;;-1.37;100.00;99776.17;4958197;59;1143202;-75
2022/01/09 20:19:39;;;;;;;114.43;46.43;;;;;;;-1.39;100.00;99791.82;4990485;58;1143289;-76
2022/01/09 20:24:47;;;;;;;119.40;47.25;;;;;;;-1.38;100.00;99791.38;5046023;58;1143661;-78
2022/01/09 20:29:53;;;;;;;144.60;53.60;;;;;;;-1.38;100.00;99803.05;4929097;59;1143175;-74
2022/01/09 20:34:58;;;;;;;135.67;51.53;;;;;;;-1.40;100.00;99806.14;5024232;58;1143280;-80
2022/01/09 20:40:07;;;;;;;148.07;51.60;;;;;;;-1.45;100.00;99810.21;5004170;58;1143474;-78
2022/01/09 20:45:13;;;;;;;150.53;57.00;;;;;;;-1.49;100.00;99809.93;5004414;58;1143260;-77
2022/01/09 20:50:19;;;;;;;157.43;61.57;;;;;;;-1.50;100.00;99819.91;5004535;58;1143303;-77
2022/01/09 20:55:25;;;;;;;135.00;50.60;;;;;;;-1.52;100.00;99829.49;5004431;58;1143431;-76
2022/01/09 21:00:36;;;;;;;131.33;50.47;;;;;;;-1.49;100.00;99824.19;5004374;58;1143379;-73
2022/01/09 21:05:40;;;;;;;153.13;53.20;;;;;;;-1.51;100.00;99829.89;5004200;58;1143331;-76
2022/01/09 21:10:49;;;;;;;357.33;114.97;;;;;;;-1.52;100.00;99837.27;5043647;58;1143190;-72
2022/01/09 21:15:56;;;;;;;188.90;66.67;;;;;;;-1.52;100.00;99842.01;5004078;59;1145295;-77
2022/01/09 21:21:02;;;;;;;145.33;52.17;;;;;;;-1.53;100.00;99852.47;5012824;58;1143169;-74
2022/01/09 21:26:09;;;;;;;158.72;59.15;;;;;;;-1.57;100.00;99855.63;4922089;58;1143165;-70
2022/01/09 21:31:15;;;;;;;154.50;56.10;;;;;;;-1.61;100.00;99868.30;4913919;58;1143445;-80
2022/01/09 21:36:21;;;;;;;138.73;53.97;;;;;;;-1.66;100.00;99870.22;4912941;59;1143569;-71
2022/01/09 21:41:29;;;;;;;136.53;51.63;;;;;;;-1.62;100.00;99880.03;4912659;58;1143395;-76
2022/01/09 21:46:35;;;;;;;149.60;51.23;;;;;;;-1.65;100.00;99877.09;4890775;60;1141126;-75
2022/01/09 21:51:41;;;;;;;125.57;44.83;;;;;;;-1.69;100.00;99895.44;4894341;58;1141142;-75
2022/01/09 21:56:50;;;;;;;103.43;42.97;;;;;;;-1.73;100.00;99902.48;4924046;59;1141129;-76
2022/01/09 22:02:02;;;;;;;99.63;39.60;;;;;;;-1.76;100.00;99918.13;4925601;59;1141087;-72
2022/01/09 22:07:12;;;;;;;101.17;41.63;;;;;;;-1.79;100.00;99924.27;4917258;58;1139269;-71
2022/01/09 22:12:18;;;;;;;109.37;42.07;;;;;;;-1.84;100.00;99932.69;4926127;58;1141616;-78
2022/01/09 22:17:23;;;;;;;107.10;42.23;;;;;;;-1.97;100.00;99931.41;4930250;58;1141208;-74
2022/01/09 22:22:30;;;;;;;124.83;47.80;;;;;;;-1.97;100.00;99931.41;4975912;57;1141090;-76
2022/01/09 22:27:42;;;;;;;121.00;46.60;;;;;;;-1.97;100.00;99941.78;4986779;59;1141086;-77
2022/01/09 22:32:50;;;;;;;168.50;68.03;;;;;;;-1.97;100.00;99946.11;4986391;59;1141113;-78
2022/01/09 22:37:56;;;;;;;149.37;57.13;;;;;;;-1.96;100.00;99956.88;4990616;59;1141284;-75
2022/01/09 22:43:02;;;;;;;141.97;55.50;;;;;;;-1.95;100.00;99955.53;4988500;59;1141666;-77
2022/01/09 22:48:09;;;;;;;117.83;43.20;;;;;;;-1.95;100.00;99960.71;4979646;59;1141587;-78